Time;durP1;ratioP1;P1;durP2;ratioP2;P2;SDS_P1;SDS_P2;PMS_P1;PMS_P2;Temp;Humidity;BMP_temperature;BMP_pressure;BME280_temperature;BME280_humidity;BME280_pressure;Samples;Min_cycle;Max_cycle;Signal;HPM_P1;HPM_P2
2023/05/31 00:00:46;;;;;;;7.75;4.32;;;;;;;;;;5007311;28;20122;-86
2023/05/31 00:03:13;;;;;;;6.68;4.63;;;;;;;;;;4982579;28;20050;-85
2023/05/31 00:05:39;;;;;;;9.45;5.00;;;;;;;;;;4992532;28;20038;-86
2023/05/31 00:08:06;;;;;;;7.63;4.82;;;;;;;;;;5008653;28;20504;-86
2023/05/31 00:10:32;;;;;;;8.63;4.80;;;;;;;;;;5007410;28;20049;-85
2023/05/31 00:12:58;;;;;;;9.27;4.65;;;;;;;;;;5009913;28;20037;-85
2023/05/31 00:15:24;;;;;;;6.50;4.80;;;;;;;;;;4984863;28;20128;-84
2023/05/31 00:17:49;;;;;;;8.20;5.18;;;;;;;;;;4992061;28;20049;-84
2023/05/31 00:20:15;;;;;;;9.10;5.00;;;;;;;;;;5002442;28;20574;-85
2023/05/31 00:22:41;;;;;;;7.15;5.13;;;;;;;;;;5005583;28;20030;-85
2023/05/31 00:25:08;;;;;;;7.72;4.35;;;;;;;;;;4991534;28;20158;-85
2023/05/31 00:27:34;;;;;;;8.15;5.05;;;;;;;;;;4999492;28;20034;-86
2023/05/31 00:29:59;;;;;;;7.22;4.68;;;;;;;;;;5009844;28;20751;-85
2023/05/31 00:32:25;;;;;;;7.32;4.68;;;;;;;;;;5003819;28;20102;-85
2023/05/31 00:34:51;;;;;;;8.98;4.82;;;;;;;;;;4997137;28;20045;-84
2023/05/31 00:37:17;;;;;;;7.95;4.45;;;;;;;;;;4998140;28;20428;-85
2023/05/31 00:39:43;;;;;;;8.65;4.78;;;;;;;;;;4988555;28;20053;-85
2023/05/31 00:42:09;;;;;;;9.07;5.20;;;;;;;;;;5002862;28;20049;-85
2023/05/31 00:44:37;;;;;;;10.57;5.20;;;9.90;99.90;;;;;;5006358;28;20046;-85
2023/05/31 00:47:04;;;;;;;6.95;4.88;;;;;;;;;;5004522;28;20396;-84
2023/05/31 00:49:30;;;;;;;8.73;4.55;;;;;;;;;;4995695;28;20135;-84
2023/05/31 00:51:56;;;;;;;7.47;4.78;;;;;;;;;;5004845;28;20064;-85
2023/05/31 00:54:23;;;;;;;8.93;4.50;;;;;;;;;;5004277;28;20124;-85
2023/05/31 00:56:49;;;;;;;7.45;4.18;;;;;;;;;;5000160;28;20048;-85
2023/05/31 00:59:16;;;;;;;6.40;4.65;;;;;;;;;;4998753;28;20046;-85
2023/05/31 01:01:42;;;;;;;9.45;5.10;;;;;;;;;;5005224;28;20046;-85
2023/05/31 01:04:08;;;;;;;6.50;4.70;;;;;;;;;;4994248;28;20815;-85
2023/05/31 01:06:35;;;;;;;7.55;4.88;;;;;;;;;;5009380;28;20041;-85
2023/05/31 01:09:05;;;;;;;12.32;5.20;;;;;;;;;;5001212;28;20042;-85
2023/05/31 01:11:44;;;;;;;8.15;5.43;;;;;;;;;;5002983;28;20075;-85
2023/05/31 01:14:27;;;;;;;7.72;5.40;;;9.50;99.90;;;;;;5002826;28;20112;-85
2023/05/31 01:16:55;;;;;;;12.38;5.63;;;;;;;;;;5000077;28;20073;-85
2023/05/31 01:19:40;;;;;;;5.93;4.35;;;;;;;;;;4988708;28;20426;-85
2023/05/31 01:22:27;;;;;;;4.28;2.85;;;;;;;;;;5001729;28;20049;-85
2023/05/31 01:25:08;;;;;;;7.10;4.00;;;;;;;;;;5000337;28;20806;-85
2023/05/31 01:27:35;;;;;;;4.20;3.00;;;;;;;;;;4986685;28;20038;-85
2023/05/31 01:30:02;;;;;;;7.45;3.80;;;;;;;;;;4988269;28;20045;-85
2023/05/31 01:32:28;;;;;;;5.72;3.80;;;;;;;;;;5004451;28;20061;-84
2023/05/31 01:34:54;;;;;;;8.05;3.92;;;;;;;;;;5006915;28;20095;-85
2023/05/31 01:37:20;;;;;;;5.32;3.05;;;;;;;;;;4999162;28;20057;-84
2023/05/31 01:39:48;;;;;;;4.72;3.90;;;;;;;;;;4998419;28;20046;-85
2023/05/31 01:42:15;;;;;;;6.50;4.05;;;9.20;99.90;;;;;;4996880;28;20054;-85
2023/05/31 01:44:41;;;;;;;9.25;4.55;;;;;;;;;;4982533;28;20037;-86
2023/05/31 01:47:08;;;;;;;7.55;4.72;;;;;;;;;;4997290;28;20668;-85
2023/05/31 01:49:35;;;;;;;9.23;5.07;;;;;;;;;;5019820;28;20534;-85
2023/05/31 01:52:05;;;;;;;17.67;5.97;;;8.90;99.90;;;;;;5005678;28;20034;-84
2023/05/31 01:54:31;;;;;;;11.65;6.35;;;;;;;;;;5006372;28;20058;-85
2023/05/31 01:56:58;;;;;;;22.20;6.78;;;8.70;99.90;;;;;;4997296;28;20100;-84
2023/05/31 01:59:25;;;;;;;22.13;5.40;;;;;;;;;;4994092;28;20059;-85
2023/05/31 02:01:51;;;;;;;10.77;3.45;;;;;;;;;;5011052;28;20570;-85
2023/05/31 02:04:19;;;;;;;5.13;3.10;;;;;;;;;;4997014;28;20052;-84
2023/05/31 02:06:45;;;;;;;5.57;3.40;;;;;;;;;;4998333;28;20045;-85
2023/05/31 02:09:11;;;;;;;5.13;3.65;;;;;;;;;;4997114;28;20042;-84
2023/05/31 02:11:37;;;;;;;4.10;2.92;;;;;;;;;;4982453;28;20053;-85
2023/05/31 02:14:03;;;;;;;4.95;3.38;;;;;;;;;;4990132;28;20855;-85
2023/05/31 02:16:29;;;;;;;5.60;3.25;;;;;;;;;;4983233;28;20057;-84
2023/05/31 02:18:56;;;;;;;5.43;3.30;;;;;;;;;;4995969;28;20034;-84
2023/05/31 02:21:23;;;;;;;3.70;2.97;;;;;;;;;;4996203;28;20065;-84
2023/05/31 02:23:49;;;;;;;4.60;2.97;;;;;;;;;;5000869;28;20053;-84
2023/05/31 02:26:16;;;;;;;3.10;2.70;;;8.70;99.90;;;;;;4987146;28;20053;-84
2023/05/31 02:28:42;;;;;;;2.20;1.92;;;;;;;;;;4991560;28;20138;-85
2023/05/31 02:31:08;;;;;;;2.40;1.55;;;8.50;99.90;;;;;;5003514;28;20145;-85
2023/05/31 02:33:34;;;;;;;6.00;2.13;;;;;;;;;;5001895;28;20507;-84
2023/05/31 02:36:00;;;;;;;4.03;2.25;;;;;;;;;;5007647;28;20422;-84
2023/05/31 02:38:26;;;;;;;3.53;2.22;;;8.40;99.90;;;;;;5007083;28;20049;-84
2023/05/31 02:40:52;;;;;;;3.05;2.60;;;;;;;;;;4985247;28;20061;-84
2023/05/31 02:43:18;;;;;;;12.02;3.38;;;;;;;;;;5000308;28;20072;-84
2023/05/31 02:45:44;;;;;;;4.43;3.13;;;;;;;;;;5005622;28;20041;-85
2023/05/31 02:48:10;;;;;;;3.97;2.85;;;;;;;;;;4990790;28;20133;-84
2023/05/31 02:50:36;;;;;;;5.57;4.00;;;;;;;;;;4992981;28;20037;-84
2023/05/31 02:53:04;;;;;;;4.80;3.22;;;;;;;;;;5009243;28;20037;-84
2023/05/31 02:55:30;;;;;;;7.93;3.97;;;;;;;;;;4993004;28;20364;-84
2023/05/31 02:57:56;;;;;;;6.32;4.35;;;;;;;;;;5006250;28;20076;-84
2023/05/31 03:00:22;;;;;;;5.82;3.85;;;;;;;;;;5003809;28;20080;-85
2023/05/31 03:02:48;;;;;;;4.63;3.45;;;;;;;;;;5004010;28;20053;-84
2023/05/31 03:05:14;;;;;;;6.18;4.25;;;;;;;;;;5000971;28;20214;-84
2023/05/31 03:07:40;;;;;;;5.70;3.60;;;;;;;;;;4987672;28;20048;-84
2023/05/31 03:10:07;;;;;;;6.07;4.18;;;;;;;;;;4997977;28;20045;-84
2023/05/31 03:12:33;;;;;;;6.35;4.05;;;;;;;;;;4987317;28;20045;-84
2023/05/31 03:14:59;;;;;;;7.55;4.45;;;;;;;;;;5000842;28;20431;-84
2023/05/31 03:17:25;;;;;;;5.82;3.58;;;;;;;;;;4990173;28;20041;-84
2023/05/31 03:19:51;;;;;;;7.53;4.22;;;;;;;;;;5002816;28;20145;-84
2023/05/31 03:22:17;;;;;;;6.50;3.97;;;;;;;;;;5023595;28;20505;-84
2023/05/31 03:24:43;;;;;;;4.70;3.45;;;;;;;;;;5023324;28;20888;-84
2023/05/31 03:27:09;;;;;;;9.20;3.83;;;;;;;;;;5002444;28;20042;-84
2023/05/31 03:29:38;;;;;;;8.60;4.47;;;;;;;;;;5005347;28;20049;-84
2023/05/31 03:32:04;;;;;;;5.70;3.92;;;8.50;99.90;;;;;;4989690;28;20045;-84
2023/05/31 03:34:30;;;;;;;5.55;4.15;;;;;;;;;;5025747;28;20048;-85
2023/05/31 03:36:56;;;;;;;5.88;3.88;;;;;;;;;;4997197;28;20066;-84
2023/05/31 03:39:22;;;;;;;5.47;3.80;;;;;;;;;;5015586;28;20077;-84
2023/05/31 03:41:47;;;;;;;6.03;2.53;;;8.60;99.90;;;;;;4998903;28;20042;-84
2023/05/31 03:44:13;;;;;;;3.28;2.60;;;;;;;;;;5006897;28;20042;-84
2023/05/31 03:46:40;;;;;;;8.73;2.35;;;;;;;;;;5005238;28;20095;-84
2023/05/31 03:49:06;;;;;;;49.28;3.60;;;;;;;;;;5004725;28;20049;-84
2023/05/31 03:51:32;;;;;;;3.38;2.47;;;;;;;;;;5006685;28;20400;-84
2023/05/31 03:53:58;;;;;;;2.92;2.50;;;;;;;;;;4997335;28;20714;-85
2023/05/31 03:56:24;;;;;;;5.35;3.08;;;;;;;;;;5002853;28;20045;-85
2023/05/31 03:58:50;;;;;;;4.43;3.25;;;;;;;;;;5021924;28;20479;-84
2023/05/31 04:01:17;;;;;;;10.43;3.13;;;;;;;;;;5004322;28;20055;-84
2023/05/31 04:03:43;;;;;;;6.03;3.38;;;;;;;;;;4990792;28;20045;-84
2023/05/31 04:06:10;;;;;;;4.75;2.85;;;;;;;;;;5025885;28;20041;-85
2023/05/31 04:08:36;;;;;;;5.80;2.35;;;;;;;;;;4981481;28;20072;-84
2023/05/31 04:11:02;;;;;;;5.53;3.20;;;;;;;;;;5000711;28;20141;-84
2023/05/31 04:13:28;;;;;;;6.72;3.70;;;;;;;;;;5005825;28;20510;-84
2023/05/31 04:15:54;;;;;;;7.22;3.95;;;;;;;;;;5020873;28;20049;-85
2023/05/31 04:18:20;;;;;;;5.70;4.32;;;;;;;;;;5004316;28;20091;-84
2023/05/31 04:20:46;;;;;;;6.90;4.70;;;;;;;;;;4998971;28;20045;-84
2023/05/31 04:23:12;;;;;;;7.78;4.95;;;;;;;;;;5020815;28;20466;-84
2023/05/31 04:25:38;;;;;;;11.07;4.72;;;;;;;;;;5003357;28;20041;-84
2023/05/31 04:28:05;;;;;;;8.55;4.55;;;;;;;;;;4988995;28;20152;-84
2023/05/31 04:30:31;;;;;;;6.40;4.28;;;;;;;;;;5005725;28;20033;-84
2023/05/31 04:32:58;;;;;;;9.80;5.20;;;;;;;;;;4993381;28;20532;-84
2023/05/31 04:35:28;;;;;;;10.82;5.25;;;;;;;;;;5009047;28;20135;-85
2023/05/31 04:37:58;;;;;;;13.07;6.25;;;;;;;;;;5007982;28;20192;-84
2023/05/31 04:40:24;;;;;;;9.63;5.70;;;;;;;;;;4994590;28;20060;-84
2023/05/31 04:42:50;;;;;;;11.30;6.22;;;;;;;;;;5016057;28;20030;-84
2023/05/31 04:45:16;;;;;;;11.82;5.68;;;;;;;;;;5028400;28;20041;-84
2023/05/31 04:47:45;;;;;;;13.20;5.75;;;;;;;;;;5004507;28;20111;-84
2023/05/31 04:50:11;;;;;;;9.75;5.78;;;;;;;;;;5009838;28;20077;-84
2023/05/31 04:52:40;;;;;;;12.85;6.32;;;;;;;;;;5006406;28;20126;-84
2023/05/31 04:55:06;;;;;;;11.07;7.88;;;10.50;99.90;;;;;;5005811;28;20079;-84
2023/05/31 04:57:32;;;;;;;12.10;6.78;;;;;;;;;;4992678;28;20140;-83
2023/05/31 04:59:58;;;;;;;9.85;6.20;;;;;;;;;;5003982;28;20491;-84
2023/05/31 05:02:24;;;;;;;9.27;5.88;;;12.00;99.90;;;;;;5005603;28;20045;-85
2023/05/31 05:04:50;;;;;;;10.45;6.45;;;;;;;;;;5009165;28;20466;-85
2023/05/31 05:07:16;;;;;;;12.65;5.95;;;13.00;99.90;;;;;;5008782;28;20056;-85
2023/05/31 05:09:42;;;;;;;10.05;5.75;;;13.20;99.90;;;;;;4984731;28;20758;-85
2023/05/31 05:12:09;;;;;;;12.20;5.38;;;;;;;;;;5027890;28;20041;-85
2023/05/31 05:14:35;;;;;;;11.30;5.72;;;;;;;;;;5001333;28;20054;-85
2023/05/31 05:17:01;;;;;;;7.28;5.10;;;;;;;;;;5015736;28;20052;-85
2023/05/31 05:19:27;;;;;;;11.85;5.50;;;;;;;;;;5010217;28;20041;-85
2023/05/31 05:21:53;;;;;;;12.02;6.15;;;;;;;;;;5009212;28;20085;-85
2023/05/31 05:24:19;;;;;;;9.38;5.57;;;15.60;99.90;;;;;;5010350;28;20140;-85
2023/05/31 05:26:44;;;;;;;12.45;5.90;;;16.00;99.90;;;;;;5003266;28;20569;-85
2023/05/31 05:29:10;;;;;;;9.55;5.00;;;16.60;99.90;;;;;;5010125;28;20454;-85
2023/05/31 05:31:36;;;;;;;8.32;5.65;;;16.30;99.90;;;;;;4999717;28;20045;-85
2023/05/31 05:34:01;;;;;;;14.73;5.93;;;16.90;99.90;;;;;;4987791;28;20136;-86
2023/05/31 05:36:27;;;;;;;9.73;5.75;;;17.00;99.90;;;;;;5006970;28;20053;-85
2023/05/31 05:38:53;;;;;;;12.70;5.60;;;17.10;99.90;;;;;;5022620;28;20091;-85
2023/05/31 05:41:18;;;;;;;11.10;5.45;;;17.60;99.90;;;;;;4990877;28;20119;-86
2023/05/31 05:43:44;;;;;;;10.20;5.38;;;17.90;99.90;;;;;;5002089;28;20050;-85
2023/05/31 05:46:09;;;;;;;11.63;5.72;;;18.20;99.90;;;;;;4992283;28;20037;-86
2023/05/31 05:48:35;;;;;;;10.10;5.35;;;18.30;99.90;;;;;;4984523;28;20065;-86
2023/05/31 05:51:00;;;;;;;12.60;5.43;;;18.70;99.90;;;;;;4990555;28;20091;-85
2023/05/31 05:53:26;;;;;;;9.32;4.97;;;19.10;99.90;;;;;;4991116;28;20037;-86
2023/05/31 05:55:53;;;;;;;10.55;5.00;;;19.70;99.90;;;;;;5008996;28;20498;-86
2023/05/31 05:58:18;;;;;;;7.97;4.35;;;20.30;99.90;;;;;;5018200;28;20488;-86
2023/05/31 06:00:48;;;;;;;8.55;4.57;;;20.80;99.90;;;;;;4983851;28;20051;-86
2023/05/31 06:03:14;;;;;;;9.63;4.82;;;23.60;99.90;;;;;;5000781;28;20041;-86
2023/05/31 06:05:41;;;;;;;10.93;5.03;;;21.70;99.90;;;;;;4999622;28;20817;-87
2023/05/31 06:08:08;;;;;;;10.75;4.97;;;21.80;99.90;;;;;;4999195;28;20046;-86
2023/05/31 06:10:33;;;;;;;6.45;4.55;;;23.90;99.90;;;;;;5002925;28;20105;-86
2023/05/31 06:12:59;;;;;;;8.82;4.60;;;22.40;99.90;;;;;;4985882;28;20091;-87
2023/05/31 06:15:24;;;;;;;9.93;5.30;;;24.40;99.90;;;;;;4992811;28;20410;-87
2023/05/31 06:17:52;;;;;;;8.60;4.57;;;24.50;99.90;;;;;;4991581;28;20144;-87
2023/05/31 06:20:18;;;;;;;7.60;4.75;;;24.70;99.90;;;;;;5002159;28;20470;-86
2023/05/31 06:22:43;;;;;;;11.52;4.90;;;22.90;99.90;;;;;;5002464;28;20084;-86
2023/05/31 06:25:09;;;;;;;7.20;4.18;;;23.20;99.90;;;;;;4987895;28;20038;-87
2023/05/31 06:27:34;;;;;;;9.27;4.82;;;23.20;99.90;;;;;;5007976;28;20124;-87
2023/05/31 06:30:01;;;;;;;12.55;4.82;;;23.80;99.90;;;;;;5004030;28;20407;-86
2023/05/31 06:32:30;;;;;;;8.38;3.58;;;26.50;99.90;;;;;;5012362;28;20123;-86
2023/05/31 06:34:56;;;;;;;9.63;4.55;;;24.60;99.90;;;;;;5006601;28;20047;-86
2023/05/31 06:37:22;;;;;;;8.32;4.18;;;24.80;99.90;;;;;;5005163;28;20065;-86
2023/05/31 06:39:49;;;;;;;8.45;4.20;;;24.40;99.90;;;;;;5024218;28;20053;-86
2023/05/31 06:42:15;;;;;;;10.98;4.15;;;23.10;99.90;;;;;;5007242;28;20037;-86
2023/05/31 06:44:42;;;;;;;7.97;3.80;;;22.00;99.90;;;;;;5021556;28;20045;-87
2023/05/31 06:47:07;;;;;;;9.20;4.10;;;21.30;99.90;;;;;;5007443;28;20521;-87
2023/05/31 06:49:33;;;;;;;7.13;3.83;;;21.00;99.90;;;;;;4992607;28;20034;-87
2023/05/31 06:51:59;;;;;;;8.00;4.10;;;20.20;99.90;;;;;;5002649;28;20480;-87
2023/05/31 06:54:26;;;;;;;9.32;5.30;;;19.60;99.90;;;;;;5003909;28;20333;-88
2023/05/31 06:56:51;;;;;;;11.95;4.90;;;19.20;99.90;;;;;;4977279;28;20119;-88
2023/05/31 06:59:17;;;;;;;10.88;4.00;;;19.10;99.90;;;;;;4989286;28;20128;-88
2023/05/31 07:01:42;;;;;;;14.85;4.80;;;19.10;99.90;;;;;;5008164;28;20124;-88
2023/05/31 07:04:08;;;;;;;11.95;4.60;;;;;;;;;;4992385;28;20041;-88
2023/05/31 07:06:36;;;;;;;9.20;5.20;;;;;;;;;;5006376;28;20502;-87
2023/05/31 07:09:02;;;;;;;7.68;5.07;;;18.50;99.90;;;;;;5006847;28;20053;-88
2023/05/31 07:11:28;;;;;;;10.07;4.25;;;;;;;;;;4988645;28;20046;-88
2023/05/31 07:13:54;;;;;;;10.10;4.13;;;;;;;;;;5010019;28;20041;-87
2023/05/31 07:16:20;;;;;;;10.55;4.63;;;;;;;;;;4996338;28;20049;-88
2023/05/31 07:18:47;;;;;;;13.95;5.57;;;;;;;;;;5005775;28;20108;-86
2023/05/31 07:21:13;;;;;;;14.50;5.05;;;;;;;;;;5021757;28;20049;-86
2023/05/31 07:23:39;;;;;;;12.77;5.00;;;;;;;;;;4986585;28;20049;-87
2023/05/31 07:26:05;;;;;;;13.02;5.50;;;;;;;;;;4988156;28;20080;-88
2023/05/31 07:28:31;;;;;;;11.50;5.07;;;;;;;;;;5002206;28;20044;-89
2023/05/31 07:30:57;;;;;;;11.20;4.95;;;;;;;;;;5024470;28;20037;-89
2023/05/31 07:33:23;;;;;;;14.93;5.75;;;;;;;;;;5010472;28;20045;-88
2023/05/31 07:35:49;;;;;;;12.85;4.75;;;;;;;;;;5005660;28;20748;-89
2023/05/31 07:38:15;;;;;;;12.80;4.80;;;;;;;;;;5010000;28;20136;-87
2023/05/31 07:40:41;;;;;;;11.52;5.55;;;;;;;;;;5006916;28;20045;-88
2023/05/31 07:43:07;;;;;;;11.50;5.65;;;;;;;;;;4991966;28;20075;-89
2023/05/31 07:45:33;;;;;;;13.57;5.80;;;;;;;;;;4991305;28;20103;-88
2023/05/31 07:47:59;;;;;;;11.07;5.82;;;;;;;;;;4997112;28;20091;-86
2023/05/31 07:50:25;;;;;;;9.93;5.18;;;;;;;;;;5007681;28;20037;-87
2023/05/31 07:52:52;;;;;;;13.80;5.65;;;;;;;;;;4992002;28;20053;-89
2023/05/31 07:55:18;;;;;;;14.23;6.03;;;;;;;;;;4989592;28;20056;-88
2023/05/31 07:57:44;;;;;;;12.75;4.90;;;;;;;;;;5000870;28;20056;-88
2023/05/31 08:00:13;;;;;;;11.57;6.07;;;;;;;;;;4996668;28;20041;-87
2023/05/31 08:02:39;;;;;;;12.95;5.95;;;;;;;;;;4996993;28;20495;-88
2023/05/31 08:05:05;;;;;;;11.85;5.03;;;;;;;;;;5031074;28;20049;-88
2023/05/31 08:07:31;;;;;;;13.30;5.35;;;;;;;;;;4980299;28;20103;-89
2023/05/31 08:09:58;;;;;;;10.15;5.47;;;;;;;;;;4997393;28;20037;-87
2023/05/31 08:12:24;;;;;;;26.95;6.30;;;;;;;;;;5025900;28;20045;-89
2023/05/31 08:14:50;;;;;;;12.20;5.25;;;;;;;;;;5009340;28;20045;-87
2023/05/31 08:17:16;;;;;;;14.95;5.05;;;;;;;;;;5008235;28;20083;-84
2023/05/31 08:19:42;;;;;;;12.13;4.30;;;;;;;;;;5002970;28;20078;-86
2023/05/31 08:22:08;;;;;;;10.60;4.63;;;;;;;;;;5019667;28;20574;-84
2023/05/31 08:24:34;;;;;;;15.05;5.68;;;;;;;;;;5023499;28;20053;-86
2023/05/31 08:27:01;;;;;;;8.90;4.65;;;;;;;;;;5008523;28;20037;-85
2023/05/31 08:29:28;;;;;;;12.55;4.97;;;;;;;;;;5004653;28;20043;-85
2023/05/31 08:31:55;;;;;;;10.48;4.43;;;;;;;;;;5007732;28;20128;-85
2023/05/31 08:34:21;;;;;;;11.68;4.78;;;;;;;;;;4993392;28;20077;-85
2023/05/31 08:36:47;;;;;;;18.95;4.65;;;;;;;;;;5007930;28;20103;-86
2023/05/31 08:39:13;;;;;;;11.10;4.80;;;;;;;;;;5002638;28;20092;-85
2023/05/31 08:42:00;;;;;;;8.90;4.47;;;18.10;99.90;;;;;;4986415;28;20042;-85
2023/05/31 08:44:26;;;;;;;12.95;5.32;;;;;;;;;;5004685;28;20057;-88
2023/05/31 08:46:52;;;;;;;10.82;4.90;;;;;;;;;;5007038;28;20037;-86
2023/05/31 08:49:19;;;;;;;10.25;4.70;;;18.40;99.90;;;;;;4998163;28;20041;-85
2023/05/31 08:51:45;;;;;;;10.07;4.50;;;;;;;;;;5004223;28;20204;-85
2023/05/31 08:54:12;;;;;;;11.60;5.22;;;;;;;;;;5006516;28;20120;-85
2023/05/31 08:56:39;;;;;;;9.65;4.60;;;18.40;99.90;;;;;;5027437;28;20037;-85
2023/05/31 08:59:09;;;;;;;8.68;4.10;;;18.30;99.90;;;;;;5019386;28;20154;-86
2023/05/31 09:01:37;;;;;;;12.85;4.70;;;18.80;99.90;;;;;;5026122;28;20110;-85
2023/05/31 09:04:05;;;;;;;9.95;5.20;;;18.30;99.90;;;;;;4996015;28;20049;-86
2023/05/31 09:06:32;;;;;;;11.95;5.03;;;;;;;;;;5007913;28;20045;-86
2023/05/31 09:09:00;;;;;;;11.38;5.60;;;;;;;;;;4988951;28;20033;-86
2023/05/31 09:11:26;;;;;;;12.02;5.28;;;;;;;;;;5018973;28;20125;-85
2023/05/31 09:13:52;;;;;;;9.95;5.15;;;;;;;;;;4991019;28;20042;-86
2023/05/31 09:16:18;;;;;;;10.95;5.30;;;;;;;;;;4987264;28;20037;-87
2023/05/31 09:18:44;;;;;;;12.98;5.43;;;;;;;;;;4988763;28;20064;-86
2023/05/31 09:21:12;;;;;;;9.38;4.68;;;18.60;99.90;;;;;;4989603;28;20423;-84
2023/05/31 09:23:38;;;;;;;12.38;6.07;;;;;;;;;;5022431;28;20052;-84
2023/05/31 09:26:07;;;;;;;11.57;4.70;;;18.50;99.90;;;;;;5004096;28;20357;-87
2023/05/31 09:28:34;;;;;;;13.98;5.75;;;18.90;99.90;;;;;;4988817;28;20056;-87
2023/05/31 09:31:05;;;;;;;13.52;5.13;;;18.70;99.90;;;;;;5007680;28;20499;-87
2023/05/31 09:33:40;;;;;;;11.77;5.55;;;18.90;99.90;;;;;;5008481;28;20045;-86
2023/05/31 09:36:06;;;;;;;11.38;4.63;;;;;;;;;;5025863;28;20069;-87
2023/05/31 09:38:33;;;;;;;10.20;5.35;;;18.80;99.90;;;;;;4988811;28;20049;-87
2023/05/31 09:41:19;;;;;;;12.50;5.15;;;19.00;99.90;;;;;;4989347;28;20033;-86
2023/05/31 09:43:49;;;;;;;9.32;5.43;;;19.10;99.90;;;;;;4998721;28;20412;-86
2023/05/31 09:46:17;;;;;;;12.55;5.30;;;19.00;99.90;;;;;;5002232;28;20053;-86
2023/05/31 09:48:45;;;;;;;12.07;5.30;;;19.00;99.90;;;;;;4986991;28;20041;-87
2023/05/31 09:51:12;;;;;;;11.00;5.25;;;19.30;99.90;;;;;;5001935;28;20040;-87
2023/05/31 09:53:43;;;;;;;10.32;5.25;;;19.30;99.90;;;;;;5003428;28;20555;-88
2023/05/31 09:56:18;;;;;;;14.30;5.68;;;19.30;99.90;;;;;;4996353;28;20124;-88
2023/05/31 09:58:44;;;;;;;12.63;6.97;;;;;;;;;;4991705;28;20049;-89
2023/05/31 10:01:10;;;;;;;9.07;5.00;;;;;;;;;;4991876;28;20049;-90
2023/05/31 10:03:36;;;;;;;9.35;5.53;;;;;;;;;;5008663;28;20041;-89
2023/05/31 10:06:03;;;;;;;11.65;6.22;;;19.20;99.90;;;;;;4986548;28;20096;-88
2023/05/31 10:08:31;;;;;;;9.90;5.45;;;;;;;;;;5020405;28;20037;-89
2023/05/31 10:10:59;;;;;;;9.82;6.32;;;19.50;99.90;;;;;;4985084;28;20052;-88
2023/05/31 10:13:28;;;;;;;9.77;5.35;;;19.50;99.90;;;;;;5005264;28;20442;-89
2023/05/31 10:16:04;;;;;;;10.82;6.28;;;19.50;99.90;;;;;;5024911;28;20044;-89
2023/05/31 10:18:32;;;;;;;10.80;5.00;;;19.60;99.90;;;;;;4992347;28;20490;-89
2023/05/31 10:20:58;;;;;;;9.85;6.03;;;;;;;;;;4986908;28;20056;-90
2023/05/31 10:23:25;;;;;;;9.13;5.57;;;19.70;99.90;;;;;;4996749;28;20298;-88
2023/05/31 10:26:25;;;;;;;11.65;5.78;;;19.90;99.90;;;;;;5004330;28;20782;-89
2023/05/31 10:29:19;;;;;;;14.20;6.13;;;19.70;99.90;;;;;;4990546;28;20166;-89
2023/05/31 10:31:55;;;;;;;10.68;5.25;;;20.00;99.90;;;;;;5001982;28;20049;-88
2023/05/31 10:34:21;;;;;;;9.23;4.32;;;;;;;;;;5022048;28;20037;-89
2023/05/31 10:36:47;;;;;;;11.88;4.72;;;;;;;;;;4986579;28;20058;-88
2023/05/31 10:39:43;;;;;;;7.38;3.72;;;20.10;99.90;;;;;;4988478;28;20046;-88
2023/05/31 10:42:38;;;;;;;13.75;4.45;;;20.10;99.90;;;;;;4989588;28;20053;-88
2023/05/31 10:45:19;;;;;;;9.48;3.97;;;20.40;99.90;;;;;;4994365;28;20062;-89
2023/05/31 10:48:22;;;;;;;9.43;4.05;;;19.90;99.90;;;;;;4981183;28;20708;-88
2023/05/31 10:50:54;;;;;;;8.18;3.80;;;20.10;99.90;;;;;;5000179;28;20041;-87
2023/05/31 10:53:20;;;;;;;10.18;3.92;;;;;;;;;;4999144;28;20045;-88
2023/05/31 10:55:47;;;;;;;11.68;4.38;;;20.00;99.90;;;;;;5008678;28;20113;-87
2023/05/31 10:58:39;;;;;;;10.60;4.18;;;20.10;99.90;;;;;;4987718;28;20034;-88
2023/05/31 11:01:11;;;;;;;12.45;4.18;;;19.90;99.90;;;;;;5005954;28;20046;-86
2023/05/31 11:03:46;;;;;;;14.80;4.75;;;20.00;99.90;;;;;;4990381;28;20073;-87
2023/05/31 11:06:13;;;;;;;14.38;5.18;;;19.90;99.90;;;;;;5005608;28;20735;-87
2023/05/31 11:08:39;;;;;;;9.52;4.10;;;;;;;;;;5001695;28;20036;-87
2023/05/31 11:11:26;;;;;;;12.18;4.55;;;20.00;99.90;;;;;;5015861;28;20068;-87
2023/05/31 11:13:57;;;;;;;12.63;4.15;;;19.90;99.90;;;;;;5006301;28;20041;-87
2023/05/31 11:16:24;;;;;;;10.35;4.85;;;;;;;;;;4988489;28;20128;-87
2023/05/31 11:19:12;;;;;;;10.85;4.40;;;19.90;99.90;;;;;;5006833;28;20076;-86
2023/05/31 11:21:55;;;;;;;9.35;4.70;;;20.00;99.90;;;;;;5000865;28;20037;-87
2023/05/31 11:24:38;;;;;;;14.40;5.03;;;19.90;99.90;;;;;;4984195;28;20519;-87
2023/05/31 11:27:06;;;;;;;10.68;4.82;;;20.00;99.90;;;;;;5000490;28;20058;-86
2023/05/31 11:29:44;;;;;;;12.82;4.20;;;20.00;99.90;;;;;;5003633;28;20519;-87
2023/05/31 11:32:10;;;;;;;12.02;4.72;;;;;;;;;;5020644;28;20049;-87
2023/05/31 11:34:58;;;;;;;12.40;4.65;;;20.00;99.90;;;;;;4990360;28;20046;-86
2023/05/31 11:37:28;;;;;;;11.80;4.60;;;19.90;99.90;;;;;;4989028;28;20557;-87
2023/05/31 11:39:55;;;;;;;9.82;4.90;;;20.10;99.90;;;;;;5003020;28;20046;-86
2023/05/31 11:42:23;;;;;;;10.80;5.10;;;20.10;99.90;;;;;;4989595;28;20069;-87
2023/05/31 11:44:50;;;;;;;11.98;4.82;;;20.00;99.90;;;;;;5005887;28;20052;-87
2023/05/31 11:47:26;;;;;;;10.20;5.72;;;19.80;99.90;;;;;;4997678;28;20057;-87
2023/05/31 11:49:52;;;;;;;15.00;5.90;;;;;;;;;;4987704;28;20042;-88
2023/05/31 11:52:19;;;;;;;18.63;5.80;;;20.10;99.90;;;;;;4985489;28;20053;-87
2023/05/31 11:54:48;;;;;;;14.75;5.68;;;20.00;99.90;;;;;;5005601;28;20033;-87
2023/05/31 11:57:14;;;;;;;11.65;6.18;;;;;;;;;;4996878;28;20057;-87
2023/05/31 11:59:41;;;;;;;13.13;5.72;;;;;;;;;;4985692;28;20042;-87
2023/05/31 12:02:08;;;;;;;12.05;5.50;;;20.10;99.90;;;;;;4981734;28;20049;-87
2023/05/31 12:04:37;;;;;;;9.57;5.32;;;20.00;99.90;;;;;;5002070;28;20042;-86
2023/05/31 12:07:05;;;;;;;12.00;6.03;;;19.90;99.90;;;;;;5005811;28;20040;-87
2023/05/31 12:09:31;;;;;;;11.10;6.05;;;;;;;;;;5000873;28;20034;-87
2023/05/31 12:11:57;;;;;;;12.18;6.65;;;;;;;;;;5002063;28;20082;-87
2023/05/31 12:14:24;;;;;;;14.25;6.53;;;20.20;99.90;;;;;;5005114;28;20046;-87
2023/05/31 12:16:50;;;;;;;9.88;5.82;;;;;;;;;;4997319;28;20116;-87
2023/05/31 12:19:17;;;;;;;11.93;6.43;;;;;;;;;;4984117;28;20050;-87
2023/05/31 12:21:43;;;;;;;12.30;6.18;;;;;;;;;;5005494;28;20404;-86
2023/05/31 12:24:14;;;;;;;11.10;6.28;;;20.00;99.90;;;;;;5006610;28;20057;-87
2023/05/31 12:26:40;;;;;;;11.88;6.03;;;;;;;;;;5004585;28;20451;-87
2023/05/31 12:29:06;;;;;;;11.48;5.68;;;;;;;;;;4988863;28;20514;-87
2023/05/31 12:31:36;;;;;;;13.98;6.40;;;20.00;99.90;;;;;;4985725;28;20041;-88
2023/05/31 12:34:04;;;;;;;11.15;5.72;;;20.00;99.90;;;;;;5006781;28;20045;-86
2023/05/31 12:36:58;;;;;;;11.07;5.13;;;20.00;99.90;;;;;;4997778;28;20105;-87
2023/05/31 12:39:24;;;;;;;13.43;5.75;;;;;;;;;;4985042;28;20045;-86
2023/05/31 12:41:51;;;;;;;12.25;5.88;;;20.10;99.90;;;;;;5004803;28;20046;-86
2023/05/31 12:44:23;;;;;;;10.05;5.28;;;20.00;99.90;;;;;;4989532;28;20061;-87
2023/05/31 12:46:51;;;;;;;10.55;5.28;;;20.10;99.90;;;;;;5004783;28;20046;-87
2023/05/31 12:49:26;;;;;;;8.20;4.75;;;20.00;99.90;;;;;;5006632;28;20049;-87
2023/05/31 12:52:09;;;;;;;15.52;5.03;;;19.80;99.90;;;;;;5002110;28;20048;-87
2023/05/31 12:54:37;;;;;;;10.32;5.65;;;20.10;99.90;;;;;;5018095;28;20046;-86
2023/05/31 12:57:06;;;;;;;10.05;5.03;;;19.80;99.90;;;;;;4995552;28;20111;-87
2023/05/31 12:59:32;;;;;;;10.07;4.90;;;19.90;99.90;;;;;;5014517;28;20110;-87
2023/05/31 13:01:58;;;;;;;14.45;6.35;;;;;;;;;;4990504;28;20639;-87
2023/05/31 13:04:25;;;;;;;11.63;5.25;;;;;;;;;;5002902;28;20041;-87
2023/05/31 13:06:52;;;;;;;9.02;5.10;;;;;;;;;;5020200;28;20096;-86
2023/05/31 13:09:18;;;;;;;11.18;5.25;;;;;;;;;;5001097;28;20154;-87
2023/05/31 13:11:48;;;;;;;10.02;4.35;;;;;;;;;;5001635;28;20041;-86
2023/05/31 13:14:14;;;;;;;11.20;4.57;;;;;;;;;;5001972;28;20049;-87
2023/05/31 13:16:41;;;;;;;11.30;4.97;;;;;;;;;;4985538;28;20053;-87
2023/05/31 13:19:07;;;;;;;6.88;4.65;;;;;;;;;;5004357;28;20410;-87
2023/05/31 13:21:35;;;;;;;11.40;4.50;;;20.00;99.90;;;;;;4988714;28;20048;-86
2023/05/31 13:24:01;;;;;;;11.13;5.40;;;;;;;;;;5004155;28;20070;-88
2023/05/31 13:26:28;;;;;;;9.35;4.45;;;;;;;;;;4998992;28;20053;-88
2023/05/31 13:28:59;;;;;;;10.27;4.85;;;20.90;99.90;;;;;;4979925;28;20042;-86
2023/05/31 13:31:25;;;;;;;7.80;4.63;;;;;;;;;;5000544;28;20046;-89
2023/05/31 13:33:51;;;;;;;13.75;5.63;;;;;;;;;;5001148;28;20057;-87
2023/05/31 13:36:17;;;;;;;10.13;4.47;;;;;;;;;;5006665;28;20144;-87
2023/05/31 13:38:43;;;;;;;10.05;5.90;;;;;;;;;;4985449;28;20060;-88
2023/05/31 13:41:10;;;;;;;16.63;5.35;;;;;;;;;;4997775;28;20054;-86
2023/05/31 13:43:39;;;;;;;10.38;5.40;;;;;;;;;;4993359;28;20057;-87
2023/05/31 13:46:09;;;;;;;10.80;4.50;;;20.20;99.90;;;;;;4994027;28;20052;-88
2023/05/31 13:48:36;;;;;;;13.05;4.53;;;;;;;;;;4989060;28;20121;-88
2023/05/31 13:51:02;;;;;;;8.13;4.57;;;;;;;;;;4990614;28;20056;-89
2023/05/31 13:53:28;;;;;;;12.48;5.60;;;;;;;;;;4979946;28;20480;-91